sensor_id;sensor_type;location;lat;lon;timestamp;P1;durP1;ratioP1;P2;durP2;ratioP2
26516;SDS011;14190;51.342;6.338;2022-12-29T00:00:33;1.20;;;1.10;;
26516;SDS011;14190;51.342;6.338;2022-12-29T00:03:00;2.98;;;1.27;;
26516;SDS011;14190;51.342;6.338;2022-12-29T00:05:27;1.12;;;1.00;;
26516;SDS011;14190;51.342;6.338;2022-12-29T00:07:55;1.57;;;1.12;;
26516;SDS011;14190;51.342;6.338;2022-12-29T00:10:22;2.62;;;1.00;;
26516;SDS011;14190;51.342;6.338;2022-12-29T00:12:49;1.57;;;1.10;;
26516;SDS011;14190;51.342;6.338;2022-12-29T00:15:35;1.10;;;1.10;;
26516;SDS011;14190;51.342;6.338;2022-12-29T00:18:06;1.32;;;1.10;;
26516;SDS011;14190;51.342;6.338;2022-12-29T00:20:34;0.80;;;0.80;;
26516;SDS011;14190;51.342;6.338;2022-12-29T00:23:20;2.60;;;1.00;;
26516;SDS011;14190;51.342;6.338;2022-12-29T00:25:49;2.45;;;1.02;;
26516;SDS011;14190;51.342;6.338;2022-12-29T00:28:35;2.10;;;1.02;;
26516;SDS011;14190;51.342;6.338;2022-12-29T00:31:20;1.40;;;1.30;;
26516;SDS011;14190;51.342;6.338;2022-12-29T00:34:07;1.20;;;1.15;;
26516;SDS011;14190;51.342;6.338;2022-12-29T00:36:53;1.80;;;1.30;;
26516;SDS011;14190;51.342;6.338;2022-12-29T00:39:20;2.40;;;1.20;;
26516;SDS011;14190;51.342;6.338;2022-12-29T00:42:06;1.20;;;1.10;;
26516;SDS011;14190;51.342;6.338;2022-12-29T00:44:52;1.25;;;0.85;;
26516;SDS011;14190;51.342;6.338;2022-12-29T00:47:19;2.25;;;0.90;;
26516;SDS011;14190;51.342;6.338;2022-12-29T00:49:47;1.20;;;1.10;;
26516;SDS011;14190;51.342;6.338;2022-12-29T00:52:16;0.93;;;0.93;;
26516;SDS011;14190;51.342;6.338;2022-12-29T00:54:44;0.93;;;0.93;;
26516;SDS011;14190;51.342;6.338;2022-12-29T00:57:12;2.52;;;1.30;;
26516;SDS011;14190;51.342;6.338;2022-12-29T00:59:40;1.45;;;0.88;;
26516;SDS011;14190;51.342;6.338;2022-12-29T01:02:08;3.70;;;1.35;;
26516;SDS011;14190;51.342;6.338;2022-12-29T01:04:36;2.17;;;1.20;;
26516;SDS011;14190;51.342;6.338;2022-12-29T01:07:03;1.62;;;0.88;;
26516;SDS011;14190;51.342;6.338;2022-12-29T01:09:31;1.00;;;1.00;;
26516;SDS011;14190;51.342;6.338;2022-12-29T01:12:17;1.15;;;0.90;;
26516;SDS011;14190;51.342;6.338;2022-12-29T01:14:46;1.62;;;0.68;;
26516;SDS011;14190;51.342;6.338;2022-12-29T01:17:13;0.88;;;0.80;;
26516;SDS011;14190;51.342;6.338;2022-12-29T01:19:40;2.05;;;0.85;;
26516;SDS011;14190;51.342;6.338;2022-12-29T01:22:08;1.98;;;0.80;;
26516;SDS011;14190;51.342;6.338;2022-12-29T01:24:35;2.00;;;0.60;;
26516;SDS011;14190;51.342;6.338;2022-12-29T01:27:03;1.57;;;0.80;;
26516;SDS011;14190;51.342;6.338;2022-12-29T01:29:30;1.75;;;0.90;;
26516;SDS011;14190;51.342;6.338;2022-12-29T01:31:57;1.07;;;0.90;;
26516;SDS011;14190;51.342;6.338;2022-12-29T01:34:25;0.72;;;0.72;;
26516;SDS011;14190;51.342;6.338;2022-12-29T01:36:52;0.95;;;0.70;;
26516;SDS011;14190;51.342;6.338;2022-12-29T01:39:19;0.72;;;0.72;;
26516;SDS011;14190;51.342;6.338;2022-12-29T01:41:47;1.40;;;0.90;;
26516;SDS011;14190;51.342;6.338;2022-12-29T01:47:00;0.70;;;0.70;;
26516;SDS011;14190;51.342;6.338;2022-12-29T01:49:27;1.35;;;0.70;;
26516;SDS011;14190;51.342;6.338;2022-12-29T01:51:56;2.55;;;0.70;;
26516;SDS011;14190;51.342;6.338;2022-12-29T01:54:26;2.85;;;0.72;;
26516;SDS011;14190;51.342;6.338;2022-12-29T01:56:55;0.95;;;0.80;;
26516;SDS011;14190;51.342;6.338;2022-12-29T01:59:24;1.62;;;0.78;;
26516;SDS011;14190;51.342;6.338;2022-12-29T02:01:52;0.93;;;0.93;;
26516;SDS011;14190;51.342;6.338;2022-12-29T02:04:20;1.82;;;1.00;;
26516;SDS011;14190;51.342;6.338;2022-12-29T02:06:56;2.47;;;1.45;;
26516;SDS011;14190;51.342;6.338;2022-12-29T02:09:24;2.98;;;1.02;;
26516;SDS011;14190;51.342;6.338;2022-12-29T02:11:52;1.40;;;0.93;;
26516;SDS011;14190;51.342;6.338;2022-12-29T02:14:19;2.60;;;1.00;;
26516;SDS011;14190;51.342;6.338;2022-12-29T02:16:54;2.52;;;1.15;;
26516;SDS011;14190;51.342;6.338;2022-12-29T02:29:57;1.52;;;1.05;;
26516;SDS011;14190;51.342;6.338;2022-12-29T02:32:31;5.47;;;1.40;;
26516;SDS011;14190;51.342;6.338;2022-12-29T02:37:42;3.47;;;1.22;;
26516;SDS011;14190;51.342;6.338;2022-12-29T02:40:23;3.12;;;1.40;;
26516;SDS011;14190;51.342;6.338;2022-12-29T02:42:51;1.35;;;1.00;;
26516;SDS011;14190;51.342;6.338;2022-12-29T02:45:26;3.05;;;1.12;;
26516;SDS011;14190;51.342;6.338;2022-12-29T02:47:54;3.90;;;1.42;;
26516;SDS011;14190;51.342;6.338;2022-12-29T02:50:21;7.42;;;1.17;;
26516;SDS011;14190;51.342;6.338;2022-12-29T02:52:53;4.17;;;1.15;;
26516;SDS011;14190;51.342;6.338;2022-12-29T02:55:20;2.20;;;0.88;;
26516;SDS011;14190;51.342;6.338;2022-12-29T02:57:48;1.92;;;1.00;;
26516;SDS011;14190;51.342;6.338;2022-12-29T03:00:16;2.17;;;0.90;;
26516;SDS011;14190;51.342;6.338;2022-12-29T03:05:29;3.52;;;1.27;;
26516;SDS011;14190;51.342;6.338;2022-12-29T03:07:59;0.72;;;0.72;;
26516;SDS011;14190;51.342;6.338;2022-12-29T03:10:26;2.77;;;1.30;;
26516;SDS011;14190;51.342;6.338;2022-12-29T03:12:56;2.22;;;1.00;;
26516;SDS011;14190;51.342;6.338;2022-12-29T03:15:44;6.20;;;1.52;;
26516;SDS011;14190;51.342;6.338;2022-12-29T03:18:33;2.70;;;1.30;;
26516;SDS011;14190;51.342;6.338;2022-12-29T03:21:10;2.72;;;1.30;;
26516;SDS011;14190;51.342;6.338;2022-12-29T03:23:36;4.60;;;1.25;;
26516;SDS011;14190;51.342;6.338;2022-12-29T03:26:07;3.30;;;0.85;;
26516;SDS011;14190;51.342;6.338;2022-12-29T03:28:43;4.15;;;1.22;;
26516;SDS011;14190;51.342;6.338;2022-12-29T03:31:07;1.77;;;1.00;;
26516;SDS011;14190;51.342;6.338;2022-12-29T03:33:37;3.42;;;1.20;;
26516;SDS011;14190;51.342;6.338;2022-12-29T03:36:07;4.40;;;1.32;;
26516;SDS011;14190;51.342;6.338;2022-12-29T03:38:37;1.40;;;0.88;;
26516;SDS011;14190;51.342;6.338;2022-12-29T03:41:05;2.67;;;0.80;;
26516;SDS011;14190;51.342;6.338;2022-12-29T03:43:33;3.27;;;1.10;;
26516;SDS011;14190;51.342;6.338;2022-12-29T03:46:01;4.50;;;1.05;;
26516;SDS011;14190;51.342;6.338;2022-12-29T03:48:28;2.90;;;1.02;;
26516;SDS011;14190;51.342;6.338;2022-12-29T03:50:56;1.65;;;0.90;;
26516;SDS011;14190;51.342;6.338;2022-12-29T03:53:23;1.85;;;0.90;;
26516;SDS011;14190;51.342;6.338;2022-12-29T03:55:50;3.65;;;0.90;;
26516;SDS011;14190;51.342;6.338;2022-12-29T03:58:18;0.75;;;0.62;;
26516;SDS011;14190;51.342;6.338;2022-12-29T04:00:50;3.72;;;0.82;;
26516;SDS011;14190;51.342;6.338;2022-12-29T04:03:17;5.58;;;1.37;;
26516;SDS011;14190;51.342;6.338;2022-12-29T04:05:44;1.52;;;1.02;;
26516;SDS011;14190;51.342;6.338;2022-12-29T04:08:12;4.22;;;0.90;;
26516;SDS011;14190;51.342;6.338;2022-12-29T04:10:39;1.47;;;0.90;;
26516;SDS011;14190;51.342;6.338;2022-12-29T04:13:07;3.12;;;0.82;;
26516;SDS011;14190;51.342;6.338;2022-12-29T04:15:34;4.78;;;1.10;;
26516;SDS011;14190;51.342;6.338;2022-12-29T04:18:01;2.37;;;1.17;;
26516;SDS011;14190;51.342;6.338;2022-12-29T04:20:29;2.85;;;0.95;;
26516;SDS011;14190;51.342;6.338;2022-12-29T04:23:15;1.00;;;0.72;;
26516;SDS011;14190;51.342;6.338;2022-12-29T04:25:44;2.52;;;1.05;;
26516;SDS011;14190;51.342;6.338;2022-12-29T04:28:13;3.77;;;0.95;;
26516;SDS011;14190;51.342;6.338;2022-12-29T04:30:58;2.50;;;0.80;;
26516;SDS011;14190;51.342;6.338;2022-12-29T04:33:27;2.00;;;0.93;;
26516;SDS011;14190;51.342;6.338;2022-12-29T04:35:54;0.95;;;0.60;;
26516;SDS011;14190;51.342;6.338;2022-12-29T04:38:23;2.72;;;0.78;;
26516;SDS011;14190;51.342;6.338;2022-12-29T04:40:51;4.47;;;0.90;;
26516;SDS011;14190;51.342;6.338;2022-12-29T04:43:20;1.55;;;0.80;;
26516;SDS011;14190;51.342;6.338;2022-12-29T04:45:59;4.83;;;0.80;;
26516;SDS011;14190;51.342;6.338;2022-12-29T04:48:31;2.85;;;1.05;;
26516;SDS011;14190;51.342;6.338;2022-12-29T04:51:09;4.95;;;1.67;;
26516;SDS011;14190;51.342;6.338;2022-12-29T04:53:38;1.37;;;0.90;;
26516;SDS011;14190;51.342;6.338;2022-12-29T04:56:06;8.50;;;1.07;;
26516;SDS011;14190;51.342;6.338;2022-12-29T04:58:35;1.85;;;0.68;;
26516;SDS011;14190;51.342;6.338;2022-12-29T05:01:04;1.92;;;0.80;;
26516;SDS011;14190;51.342;6.338;2022-12-29T05:03:31;1.27;;;0.72;;
26516;SDS011;14190;51.342;6.338;2022-12-29T05:05:59;1.67;;;0.68;;
26516;SDS011;14190;51.342;6.338;2022-12-29T05:08:26;1.87;;;0.90;;
26516;SDS011;14190;51.342;6.338;2022-12-29T05:10:55;1.10;;;0.85;;
26516;SDS011;14190;51.342;6.338;2022-12-29T05:13:23;4.60;;;1.15;;
26516;SDS011;14190;51.342;6.338;2022-12-29T05:15:51;1.17;;;0.85;;
26516;SDS011;14190;51.342;6.338;2022-12-29T05:18:19;6.47;;;1.10;;
26516;SDS011;14190;51.342;6.338;2022-12-29T05:20:47;6.00;;;1.32;;
26516;SDS011;14190;51.342;6.338;2022-12-29T05:23:15;5.50;;;1.22;;
26516;SDS011;14190;51.342;6.338;2022-12-29T05:25:45;5.27;;;1.30;;
26516;SDS011;14190;51.342;6.338;2022-12-29T05:28:23;4.53;;;0.93;;
26516;SDS011;14190;51.342;6.338;2022-12-29T05:31:01;3.05;;;1.00;;
26516;SDS011;14190;51.342;6.338;2022-12-29T05:33:29;2.52;;;0.93;;
26516;SDS011;14190;51.342;6.338;2022-12-29T05:36:06;5.50;;;1.02;;
26516;SDS011;14190;51.342;6.338;2022-12-29T05:38:36;2.65;;;0.70;;
26516;SDS011;14190;51.342;6.338;2022-12-29T05:41:03;3.92;;;1.02;;
26516;SDS011;14190;51.342;6.338;2022-12-29T05:43:32;3.27;;;1.13;;
26516;SDS011;14190;51.342;6.338;2022-12-29T05:46:14;3.45;;;0.95;;
26516;SDS011;14190;51.342;6.338;2022-12-29T05:48:46;6.00;;;1.37;;
26516;SDS011;14190;51.342;6.338;2022-12-29T05:51:15;2.08;;;0.70;;
26516;SDS011;14190;51.342;6.338;2022-12-29T05:53:46;4.22;;;1.12;;
26516;SDS011;14190;51.342;6.338;2022-12-29T05:56:15;3.37;;;0.65;;
26516;SDS011;14190;51.342;6.338;2022-12-29T05:58:42;4.67;;;1.35;;
26516;SDS011;14190;51.342;6.338;2022-12-29T06:01:10;2.25;;;0.93;;
26516;SDS011;14190;51.342;6.338;2022-12-29T06:03:37;8.40;;;2.02;;
26516;SDS011;14190;51.342;6.338;2022-12-29T06:06:05;4.83;;;1.25;;
26516;SDS011;14190;51.342;6.338;2022-12-29T06:08:32;2.50;;;0.98;;
26516;SDS011;14190;51.342;6.338;2022-12-29T06:11:00;6.85;;;1.20;;
26516;SDS011;14190;51.342;6.338;2022-12-29T06:13:27;1.72;;;0.60;;
26516;SDS011;14190;51.342;6.338;2022-12-29T06:15:56;6.10;;;1.00;;
26516;SDS011;14190;51.342;6.338;2022-12-29T06:18:25;4.45;;;1.30;;
26516;SDS011;14190;51.342;6.338;2022-12-29T06:20:52;3.50;;;1.12;;
26516;SDS011;14190;51.342;6.338;2022-12-29T06:23:21;3.83;;;1.22;;
26516;SDS011;14190;51.342;6.338;2022-12-29T06:25:49;6.08;;;2.02;;
26516;SDS011;14190;51.342;6.338;2022-12-29T06:28:16;5.37;;;1.10;;
26516;SDS011;14190;51.342;6.338;2022-12-29T06:30:44;6.42;;;1.35;;
26516;SDS011;14190;51.342;6.338;2022-12-29T06:33:12;5.20;;;0.95;;
26516;SDS011;14190;51.342;6.338;2022-12-29T06:35:40;4.85;;;1.40;;
26516;SDS011;14190;51.342;6.338;2022-12-29T06:38:08;4.12;;;1.30;;
26516;SDS011;14190;51.342;6.338;2022-12-29T06:40:36;8.28;;;1.30;;
26516;SDS011;14190;51.342;6.338;2022-12-29T06:43:05;5.10;;;1.30;;
26516;SDS011;14190;51.342;6.338;2022-12-29T06:45:51;5.00;;;1.57;;
26516;SDS011;14190;51.342;6.338;2022-12-29T06:48:18;4.87;;;1.42;;
26516;SDS011;14190;51.342;6.338;2022-12-29T06:50:46;5.62;;;1.07;;
26516;SDS011;14190;51.342;6.338;2022-12-29T06:53:13;4.45;;;1.40;;
26516;SDS011;14190;51.342;6.338;2022-12-29T06:55:41;4.35;;;1.12;;
26516;SDS011;14190;51.342;6.338;2022-12-29T06:58:09;9.03;;;1.77;;
26516;SDS011;14190;51.342;6.338;2022-12-29T07:00:36;5.78;;;1.90;;
26516;SDS011;14190;51.342;6.338;2022-12-29T07:03:03;3.52;;;1.12;;
26516;SDS011;14190;51.342;6.338;2022-12-29T07:05:31;4.90;;;1.37;;
26516;SDS011;14190;51.342;6.338;2022-12-29T07:07:59;3.90;;;1.40;;
26516;SDS011;14190;51.342;6.338;2022-12-29T07:10:26;5.90;;;1.30;;
26516;SDS011;14190;51.342;6.338;2022-12-29T07:12:54;3.90;;;1.17;;
26516;SDS011;14190;51.342;6.338;2022-12-29T07:15:21;7.75;;;1.30;;
26516;SDS011;14190;51.342;6.338;2022-12-29T07:17:48;7.60;;;1.15;;
26516;SDS011;14190;51.342;6.338;2022-12-29T07:20:18;4.85;;;1.30;;
26516;SDS011;14190;51.342;6.338;2022-12-29T07:22:46;6.28;;;1.32;;
26516;SDS011;14190;51.342;6.338;2022-12-29T07:25:13;14.43;;;2.37;;
26516;SDS011;14190;51.342;6.338;2022-12-29T07:27:41;8.30;;;2.08;;
26516;SDS011;14190;51.342;6.338;2022-12-29T07:30:08;11.55;;;2.33;;
26516;SDS011;14190;51.342;6.338;2022-12-29T07:32:36;10.10;;;1.80;;
26516;SDS011;14190;51.342;6.338;2022-12-29T07:35:03;8.58;;;2.60;;
26516;SDS011;14190;51.342;6.338;2022-12-29T07:37:31;6.12;;;1.47;;
26516;SDS011;14190;51.342;6.338;2022-12-29T07:39:58;6.00;;;1.75;;
26516;SDS011;14190;51.342;6.338;2022-12-29T07:42:25;10.60;;;2.00;;
26516;SDS011;14190;51.342;6.338;2022-12-29T07:44:53;11.48;;;2.12;;
26516;SDS011;14190;51.342;6.338;2022-12-29T07:47:22;6.43;;;1.73;;
26516;SDS011;14190;51.342;6.338;2022-12-29T07:49:50;10.95;;;2.70;;
26516;SDS011;14190;51.342;6.338;2022-12-29T07:52:17;10.35;;;1.98;;
26516;SDS011;14190;51.342;6.338;2022-12-29T07:54:45;3.85;;;1.72;;
26516;SDS011;14190;51.342;6.338;2022-12-29T07:57:12;11.35;;;2.50;;
26516;SDS011;14190;51.342;6.338;2022-12-29T07:59:39;6.08;;;1.90;;
26516;SDS011;14190;51.342;6.338;2022-12-29T08:02:09;9.25;;;1.22;;
26516;SDS011;14190;51.342;6.338;2022-12-29T08:04:36;9.08;;;2.30;;
26516;SDS011;14190;51.342;6.338;2022-12-29T08:07:03;4.67;;;1.47;;
26516;SDS011;14190;51.342;6.338;2022-12-29T08:09:31;7.53;;;1.87;;
26516;SDS011;14190;51.342;6.338;2022-12-29T08:11:58;8.70;;;2.02;;
26516;SDS011;14190;51.342;6.338;2022-12-29T08:14:25;9.03;;;2.20;;
26516;SDS011;14190;51.342;6.338;2022-12-29T08:16:53;14.18;;;1.55;;
26516;SDS011;14190;51.342;6.338;2022-12-29T08:19:20;8.90;;;1.85;;
26516;SDS011;14190;51.342;6.338;2022-12-29T08:21:48;8.10;;;2.22;;
26516;SDS011;14190;51.342;6.338;2022-12-29T08:24:15;9.38;;;2.20;;
26516;SDS011;14190;51.342;6.338;2022-12-29T08:26:42;13.05;;;1.98;;
26516;SDS011;14190;51.342;6.338;2022-12-29T08:29:10;7.22;;;2.00;;
26516;SDS011;14190;51.342;6.338;2022-12-29T08:31:37;8.58;;;2.20;;
26516;SDS011;14190;51.342;6.338;2022-12-29T08:34:04;13.03;;;2.37;;
26516;SDS011;14190;51.342;6.338;2022-12-29T08:36:32;10.48;;;1.95;;
26516;SDS011;14190;51.342;6.338;2022-12-29T08:38:59;10.58;;;2.20;;
26516;SDS011;14190;51.342;6.338;2022-12-29T08:41:26;9.03;;;1.90;;
26516;SDS011;14190;51.342;6.338;2022-12-29T08:43:54;5.33;;;1.45;;
26516;SDS011;14190;51.342;6.338;2022-12-29T08:46:21;8.65;;;2.02;;
26516;SDS011;14190;51.342;6.338;2022-12-29T08:48:49;9.95;;;1.67;;
26516;SDS011;14190;51.342;6.338;2022-12-29T08:51:16;8.08;;;1.55;;
26516;SDS011;14190;51.342;6.338;2022-12-29T08:53:43;4.65;;;1.72;;
26516;SDS011;14190;51.342;6.338;2022-12-29T08:56:11;11.22;;;1.77;;
26516;SDS011;14190;51.342;6.338;2022-12-29T08:58:40;13.85;;;2.12;;
26516;SDS011;14190;51.342;6.338;2022-12-29T09:01:08;7.33;;;2.05;;
26516;SDS011;14190;51.342;6.338;2022-12-29T09:03:36;6.22;;;1.87;;
26516;SDS011;14190;51.342;6.338;2022-12-29T09:06:04;8.43;;;2.20;;
26516;SDS011;14190;51.342;6.338;2022-12-29T09:08:31;14.85;;;2.92;;
26516;SDS011;14190;51.342;6.338;2022-12-29T09:11:32;10.53;;;2.27;;
26516;SDS011;14190;51.342;6.338;2022-12-29T09:13:34;13.98;;;2.20;;
26516;SDS011;14190;51.342;6.338;2022-12-29T09:16:01;13.72;;;2.83;;
26516;SDS011;14190;51.342;6.338;2022-12-29T09:18:29;9.40;;;2.50;;
26516;SDS011;14190;51.342;6.338;2022-12-29T09:20:57;9.20;;;1.92;;
26516;SDS011;14190;51.342;6.338;2022-12-29T09:23:24;14.65;;;1.95;;
26516;SDS011;14190;51.342;6.338;2022-12-29T09:25:52;8.88;;;2.37;;
26516;SDS011;14190;51.342;6.338;2022-12-29T09:28:20;14.90;;;2.62;;
26516;SDS011;14190;51.342;6.338;2022-12-29T09:30:47;7.10;;;2.35;;
26516;SDS011;14190;51.342;6.338;2022-12-29T09:33:15;9.03;;;1.87;;
26516;SDS011;14190;51.342;6.338;2022-12-29T09:35:50;10.45;;;2.45;;
26516;SDS011;14190;51.342;6.338;2022-12-29T09:38:15;8.33;;;1.70;;
26516;SDS011;14190;51.342;6.338;2022-12-29T09:40:44;13.10;;;2.77;;
26516;SDS011;14190;51.342;6.338;2022-12-29T09:48:41;10.10;;;3.20;;
26516;SDS011;14190;51.342;6.338;2022-12-29T09:51:08;9.45;;;2.02;;
26516;SDS011;14190;51.342;6.338;2022-12-29T09:53:41;7.42;;;1.77;;
26516;SDS011;14190;51.342;6.338;2022-12-29T09:56:15;13.28;;;2.25;;
26516;SDS011;14190;51.342;6.338;2022-12-29T09:58:59;8.40;;;1.98;;
26516;SDS011;14190;51.342;6.338;2022-12-29T10:01:28;10.95;;;2.00;;
26516;SDS011;14190;51.342;6.338;2022-12-29T10:03:54;7.45;;;1.70;;
26516;SDS011;14190;51.342;6.338;2022-12-29T10:09:13;11.05;;;1.82;;
26516;SDS011;14190;51.342;6.338;2022-12-29T10:17:01;8.83;;;1.92;;
26516;SDS011;14190;51.342;6.338;2022-12-29T10:24:47;14.60;;;2.87;;
26516;SDS011;14190;51.342;6.338;2022-12-29T10:27:16;14.25;;;2.45;;
26516;SDS011;14190;51.342;6.338;2022-12-29T10:29:58;13.15;;;2.50;;
26516;SDS011;14190;51.342;6.338;2022-12-29T10:32:25;18.95;;;2.35;;
26516;SDS011;14190;51.342;6.338;2022-12-29T10:34:51;5.42;;;2.00;;
26516;SDS011;14190;51.342;6.338;2022-12-29T10:37:30;12.88;;;2.15;;
26516;SDS011;14190;51.342;6.338;2022-12-29T10:39:58;14.20;;;2.15;;
26516;SDS011;14190;51.342;6.338;2022-12-29T10:42:27;13.43;;;2.33;;
26516;SDS011;14190;51.342;6.338;2022-12-29T10:44:54;9.93;;;2.60;;
26516;SDS011;14190;51.342;6.338;2022-12-29T10:47:28;13.38;;;2.62;;
26516;SDS011;14190;51.342;6.338;2022-12-29T10:49:51;12.15;;;1.95;;
26516;SDS011;14190;51.342;6.338;2022-12-29T10:52:19;13.45;;;2.90;;
26516;SDS011;14190;51.342;6.338;2022-12-29T10:57:41;16.90;;;2.37;;
26516;SDS011;14190;51.342;6.338;2022-12-29T11:00:16;13.62;;;2.50;;
26516;SDS011;14190;51.342;6.338;2022-12-29T11:05:33;11.00;;;2.12;;
26516;SDS011;14190;51.342;6.338;2022-12-29T11:08:02;20.62;;;3.20;;
26516;SDS011;14190;51.342;6.338;2022-12-29T11:10:36;19.55;;;2.92;;
26516;SDS011;14190;51.342;6.338;2022-12-29T11:15:51;8.10;;;2.37;;
26516;SDS011;14190;51.342;6.338;2022-12-29T11:18:19;12.58;;;2.40;;
26516;SDS011;14190;51.342;6.338;2022-12-29T11:20:48;11.57;;;2.72;;
26516;SDS011;14190;51.342;6.338;2022-12-29T11:23:26;8.25;;;1.82;;
26516;SDS011;14190;51.342;6.338;2022-12-29T11:28:38;10.40;;;2.40;;
26516;SDS011;14190;51.342;6.338;2022-12-29T11:31:06;16.05;;;2.45;;
26516;SDS011;14190;51.342;6.338;2022-12-29T11:33:35;11.83;;;2.72;;
26516;SDS011;14190;51.342;6.338;2022-12-29T11:36:11;11.35;;;2.70;;
26516;SDS011;14190;51.342;6.338;2022-12-29T11:38:36;10.38;;;2.35;;
26516;SDS011;14190;51.342;6.338;2022-12-29T11:41:04;10.15;;;2.37;;
26516;SDS011;14190;51.342;6.338;2022-12-29T11:43:33;11.78;;;2.67;;
26516;SDS011;14190;51.342;6.338;2022-12-29T11:46:01;9.75;;;2.25;;
26516;SDS011;14190;51.342;6.338;2022-12-29T11:48:32;13.85;;;2.42;;
26516;SDS011;14190;51.342;6.338;2022-12-29T11:50:58;11.15;;;2.20;;
26516;SDS011;14190;51.342;6.338;2022-12-29T11:53:27;8.60;;;1.95;;
26516;SDS011;14190;51.342;6.338;2022-12-29T11:55:56;11.57;;;2.20;;
26516;SDS011;14190;51.342;6.338;2022-12-29T11:58:36;15.75;;;2.45;;
26516;SDS011;14190;51.342;6.338;2022-12-29T12:03:38;11.63;;;2.05;;
26516;SDS011;14190;51.342;6.338;2022-12-29T12:06:05;11.10;;;1.90;;
26516;SDS011;14190;51.342;6.338;2022-12-29T12:08:45;13.95;;;2.42;;
26516;SDS011;14190;51.342;6.338;2022-12-29T12:11:05;9.68;;;2.02;;
26516;SDS011;14190;51.342;6.338;2022-12-29T12:13:38;13.53;;;2.27;;
26516;SDS011;14190;51.342;6.338;2022-12-29T12:16:04;16.02;;;2.67;;
26516;SDS011;14190;51.342;6.338;2022-12-29T12:18:36;10.98;;;1.98;;
26516;SDS011;14190;51.342;6.338;2022-12-29T12:21:04;6.83;;;2.42;;
26516;SDS011;14190;51.342;6.338;2022-12-29T12:23:36;14.90;;;2.50;;
26516;SDS011;14190;51.342;6.338;2022-12-29T12:28:48;12.13;;;2.72;;
26516;SDS011;14190;51.342;6.338;2022-12-29T12:31:23;12.63;;;3.08;;
26516;SDS011;14190;51.342;6.338;2022-12-29T12:33:47;14.23;;;2.67;;
26516;SDS011;14190;51.342;6.338;2022-12-29T12:44:11;13.72;;;2.35;;
26516;SDS011;14190;51.342;6.338;2022-12-29T12:47:21;13.65;;;2.98;;
26516;SDS011;14190;51.342;6.338;2022-12-29T12:54:20;10.53;;;1.87;;
26516;SDS011;14190;51.342;6.338;2022-12-29T12:56:47;21.00;;;3.45;;
26516;SDS011;14190;51.342;6.338;2022-12-29T12:59:21;11.80;;;2.37;;
26516;SDS011;14190;51.342;6.338;2022-12-29T13:09:28;9.93;;;1.87;;
26516;SDS011;14190;51.342;6.338;2022-12-29T13:12:03;11.18;;;2.35;;
26516;SDS011;14190;51.342;6.338;2022-12-29T13:22:09;12.25;;;2.80;;
26516;SDS011;14190;51.342;6.338;2022-12-29T13:27:12;7.60;;;2.55;;
26516;SDS011;14190;51.342;6.338;2022-12-29T13:29:50;9.93;;;2.10;;
26516;SDS011;14190;51.342;6.338;2022-12-29T13:35:08;12.30;;;2.40;;
26516;SDS011;14190;51.342;6.338;2022-12-29T13:37:34;13.10;;;2.20;;
26516;SDS011;14190;51.342;6.338;2022-12-29T13:40:03;12.25;;;2.60;;
26516;SDS011;14190;51.342;6.338;2022-12-29T13:42:31;12.30;;;2.55;;
26516;SDS011;14190;51.342;6.338;2022-12-29T13:45:00;9.73;;;2.05;;
26516;SDS011;14190;51.342;6.338;2022-12-29T13:47:38;6.03;;;2.15;;
26516;SDS011;14190;51.342;6.338;2022-12-29T13:50:08;9.75;;;2.47;;
26516;SDS011;14190;51.342;6.338;2022-12-29T13:52:39;9.23;;;2.55;;
26516;SDS011;14190;51.342;6.338;2022-12-29T13:57:59;15.93;;;2.67;;
26516;SDS011;14190;51.342;6.338;2022-12-29T14:00:25;9.78;;;2.40;;
26516;SDS011;14190;51.342;6.338;2022-12-29T14:05:28;12.03;;;1.80;;
26516;SDS011;14190;51.342;6.338;2022-12-29T14:08:00;12.78;;;2.40;;
26516;SDS011;14190;51.342;6.338;2022-12-29T14:10:29;14.47;;;2.80;;
26516;SDS011;14190;51.342;6.338;2022-12-29T14:13:05;6.75;;;1.65;;
26516;SDS011;14190;51.342;6.338;2022-12-29T14:15:32;12.63;;;2.62;;
26516;SDS011;14190;51.342;6.338;2022-12-29T14:18:02;8.30;;;2.00;;
26516;SDS011;14190;51.342;6.338;2022-12-29T14:20:28;9.45;;;2.05;;
26516;SDS011;14190;51.342;6.338;2022-12-29T14:22:57;8.18;;;2.37;;
26516;SDS011;14190;51.342;6.338;2022-12-29T14:28:33;11.22;;;2.05;;
26516;SDS011;14190;51.342;6.338;2022-12-29T14:30:50;13.83;;;2.58;;
26516;SDS011;14190;51.342;6.338;2022-12-29T14:33:18;16.50;;;1.95;;
26516;SDS011;14190;51.342;6.338;2022-12-29T14:35:46;9.83;;;2.90;;
26516;SDS011;14190;51.342;6.338;2022-12-29T14:38:22;5.10;;;1.70;;
26516;SDS011;14190;51.342;6.338;2022-12-29T14:40:50;11.97;;;2.00;;
26516;SDS011;14190;51.342;6.338;2022-12-29T14:43:23;10.15;;;1.82;;
26516;SDS011;14190;51.342;6.338;2022-12-29T14:45:58;9.85;;;2.12;;
26516;SDS011;14190;51.342;6.338;2022-12-29T14:48:29;11.20;;;2.17;;
26516;SDS011;14190;51.342;6.338;2022-12-29T14:50:57;8.40;;;1.80;;
26516;SDS011;14190;51.342;6.338;2022-12-29T14:53:40;15.40;;;2.77;;
26516;SDS011;14190;51.342;6.338;2022-12-29T14:55:59;11.83;;;1.98;;
26516;SDS011;14190;51.342;6.338;2022-12-29T15:01:20;13.78;;;2.47;;
26516;SDS011;14190;51.342;6.338;2022-12-29T15:03:49;12.20;;;2.17;;
26516;SDS011;14190;51.342;6.338;2022-12-29T15:06:16;11.63;;;2.33;;
26516;SDS011;14190;51.342;6.338;2022-12-29T15:11:22;12.03;;;2.35;;
26516;SDS011;14190;51.342;6.338;2022-12-29T15:13:49;10.32;;;2.50;;
26516;SDS011;14190;51.342;6.338;2022-12-29T15:16:23;9.53;;;2.05;;
26516;SDS011;14190;51.342;6.338;2022-12-29T15:18:51;11.65;;;2.10;;
26516;SDS011;14190;51.342;6.338;2022-12-29T15:21:25;17.37;;;2.70;;
26516;SDS011;14190;51.342;6.338;2022-12-29T15:23:48;14.30;;;3.10;;
26516;SDS011;14190;51.342;6.338;2022-12-29T15:26:15;11.40;;;2.02;;
26516;SDS011;14190;51.342;6.338;2022-12-29T15:28:45;9.90;;;2.55;;
26516;SDS011;14190;51.342;6.338;2022-12-29T15:33:47;11.12;;;2.20;;
26516;SDS011;14190;51.342;6.338;2022-12-29T15:36:19;9.03;;;1.62;;
26516;SDS011;14190;51.342;6.338;2022-12-29T15:38:47;9.63;;;1.72;;
26516;SDS011;14190;51.342;6.338;2022-12-29T15:41:25;12.37;;;2.42;;
26516;SDS011;14190;51.342;6.338;2022-12-29T15:46:22;12.47;;;2.62;;
26516;SDS011;14190;51.342;6.338;2022-12-29T15:48:50;11.43;;;2.42;;
26516;SDS011;14190;51.342;6.338;2022-12-29T15:51:22;15.80;;;2.95;;
26516;SDS011;14190;51.342;6.338;2022-12-29T15:53:50;15.55;;;2.98;;
26516;SDS011;14190;51.342;6.338;2022-12-29T15:56:18;11.10;;;2.75;;
26516;SDS011;14190;51.342;6.338;2022-12-29T15:58:50;12.13;;;2.50;;
26516;SDS011;14190;51.342;6.338;2022-12-29T16:01:18;13.72;;;2.47;;
26516;SDS011;14190;51.342;6.338;2022-12-29T16:03:46;10.95;;;3.15;;
26516;SDS011;14190;51.342;6.338;2022-12-29T16:06:26;12.13;;;2.75;;
26516;SDS011;14190;51.342;6.338;2022-12-29T16:08:58;9.28;;;2.17;;
26516;SDS011;14190;51.342;6.338;2022-12-29T16:11:34;19.73;;;4.08;;
26516;SDS011;14190;51.342;6.338;2022-12-29T16:14:01;12.20;;;2.90;;
26516;SDS011;14190;51.342;6.338;2022-12-29T16:16:33;13.85;;;3.27;;
26516;SDS011;14190;51.342;6.338;2022-12-29T16:19:06;14.73;;;2.87;;
26516;SDS011;14190;51.342;6.338;2022-12-29T16:21:33;11.80;;;3.12;;
26516;SDS011;14190;51.342;6.338;2022-12-29T16:24:08;14.43;;;3.33;;
26516;SDS011;14190;51.342;6.338;2022-12-29T16:26:33;20.82;;;3.70;;
26516;SDS011;14190;51.342;6.338;2022-12-29T16:29:01;16.15;;;6.00;;
26516;SDS011;14190;51.342;6.338;2022-12-29T16:31:34;14.60;;;3.35;;
26516;SDS011;14190;51.342;6.338;2022-12-29T16:36:55;5.30;;;1.70;;
26516;SDS011;14190;51.342;6.338;2022-12-29T16:39:32;6.87;;;1.70;;
26516;SDS011;14190;51.342;6.338;2022-12-29T16:42:00;10.50;;;1.60;;
26516;SDS011;14190;51.342;6.338;2022-12-29T16:44:29;5.78;;;1.00;;
26516;SDS011;14190;51.342;6.338;2022-12-29T16:49:39;4.67;;;1.25;;